Time;durP1;ratioP1;P1;durP2;ratioP2;P2;SDS_P1;SDS_P2;PMS_P1;PMS_P2;Temp;Humidity;BMP_temperature;BMP_pressure;BME280_temperature;BME280_humidity;BME280_pressure;Samples;Min_cycle;Max_cycle;Signal;HPM_P1;HPM_P2
2022/11/01 00:01:51;;;;;;;0.00;0.00;;;;;;;11.45;100.00;100153.34;5032140;28;20187;-84
2022/11/01 00:04:18;;;;;;;0.00;0.00;;;;;;;11.70;100.00;100151.66;5032248;28;20251;-86
2022/11/01 00:06:43;;;;;;;1.60;0.63;;;;;;;11.79;100.00;100158.75;5032496;28;20172;-87
2022/11/01 00:09:08;;;;;;;0.00;0.00;;;;;;;11.74;100.00;100153.44;5032663;28;20187;-88
2022/11/01 00:11:34;;;;;;;0.10;0.10;;;;;;;11.80;100.00;100154.09;5014246;28;20563;-88
2022/11/01 00:13:59;;;;;;;0.07;0.07;;;;;;;11.78;100.00;100156.31;5031533;28;20663;-89
2022/11/01 00:16:25;;;;;;;1.83;1.73;;;;;;;11.73;100.00;100160.03;5031974;28;20168;-85
2022/11/01 00:18:50;;;;;;;0.00;0.00;;;;;;;11.69;100.00;100171.94;5032041;28;20203;-88
2022/11/01 00:21:16;;;;;;;0.00;0.00;;;;;;;11.61;100.00;100163.44;5031903;28;20168;-85
2022/11/01 00:23:42;;;;;;;0.00;0.00;;;;;;;11.50;100.00;100156.69;5031083;28;20175;-83
2022/11/01 00:26:09;;;;;;;0.00;0.00;;;;;;;11.38;100.00;100156.56;5031482;28;20442;-86
2022/11/01 00:28:35;;;;;;;0.00;0.00;;;;;;;11.38;100.00;100151.09;5031077;28;20176;-89
2022/11/01 00:31:00;;;;;;;0.00;0.00;;;;;;;11.38;100.00;100148.34;5031455;28;20203;-87
2022/11/01 00:33:26;;;;;;;0.00;0.00;;;;;;;11.53;100.00;100147.84;5030949;28;20179;-89
2022/11/01 00:35:51;;;;;;;0.00;0.00;;;;;;;11.58;100.00;100146.88;5031163;28;20172;-89
2022/11/01 00:38:17;;;;;;;0.00;0.00;;;;;;;11.54;100.00;100137.69;5030940;28;20181;-88
2022/11/01 00:40:44;;;;;;;0.00;0.00;;;;;;;11.70;100.00;100136.03;5030053;28;20223;-86
2022/11/01 00:43:10;;;;;;;0.00;0.00;;;;;;;11.46;100.00;100141.28;5030694;28;20168;-87
2022/11/01 00:45:35;;;;;;;0.00;0.00;;;;;;;11.51;100.00;100143.81;5030864;28;20263;-89
2022/11/01 00:48:00;;;;;;;0.00;0.00;;;;;;;11.41;100.00;100136.75;5030916;28;20608;-88
2022/11/01 00:50:26;;;;;;;0.40;0.30;;;;;;;11.31;100.00;100118.78;5030872;28;20203;-84
2022/11/01 00:52:51;;;;;;;0.00;0.00;;;;;;;11.46;100.00;100113.91;5030517;28;20182;-81
2022/11/01 00:55:16;;;;;;;0.00;0.00;;;;;;;11.53;100.00;100116.94;5031311;28;20267;-89
2022/11/01 00:57:45;;;;;;;0.00;0.00;;;;;;;11.46;100.00;100113.91;5030522;28;20740;-87
2022/11/01 01:00:13;;;;;;;0.00;0.00;;;;;;;11.38;100.00;100112.00;5030826;28;20609;-85
2022/11/01 01:02:38;;;;;;;0.00;0.00;;;;;;;11.42;100.00;100118.41;5030473;28;20221;-85
2022/11/01 01:05:04;;;;;;;0.00;0.00;;;;;;;11.27;100.00;100119.72;5030560;28;20180;-82
2022/11/01 01:07:30;;;;;;;0.00;0.00;;;;;;;11.22;100.00;100108.97;5030433;28;20188;-84
2022/11/01 01:09:55;;;;;;;0.00;0.00;;;;;;;11.21;100.00;100110.88;5030808;28;20186;-89
2022/11/01 01:12:21;;;;;;;1.23;0.87;;;;;;;11.13;100.00;100094.47;5030372;28;20709;-86
2022/11/01 01:14:46;;;;;;;0.00;0.00;;;;;;;11.06;100.00;100092.25;5030348;28;20532;-87
2022/11/01 01:17:11;;;;;;;0.10;0.10;;;;;;;11.12;100.00;100084.69;5030690;28;20171;-89
2022/11/01 01:19:37;;;;;;;1.70;1.60;;;;;;;11.11;100.00;100086.59;5012647;28;20186;-77
2022/11/01 01:22:02;;;;;;;0.00;0.00;;;;;;;11.10;100.00;100085.00;5030415;28;20242;-87
2022/11/01 01:24:28;;;;;;;0.20;0.20;;;;;;;11.11;100.00;100081.13;5030309;28;20176;-88
2022/11/01 01:26:53;;;;;;;0.13;0.13;;;;;;;11.19;100.00;100074.06;5030664;28;20179;-83
2022/11/01 01:29:18;;;;;;;0.00;0.00;;;;;;;11.22;100.00;100063.28;5012786;28;20176;-86
2022/11/01 01:31:43;;;;;;;0.00;0.00;;;;;;;11.33;100.00;100055.53;5030251;28;20264;-87
2022/11/01 01:34:09;;;;;;;0.00;0.00;;;;;;;11.42;100.00;100055.50;5030336;28;20206;-86
2022/11/01 01:36:34;;;;;;;0.00;0.00;;;;;;;11.36;100.00;100057.63;5030390;28;20433;-87
2022/11/01 01:38:59;;;;;;;0.00;0.00;;;;;;;11.50;100.00;100060.16;5030345;28;20182;-80
2022/11/01 01:45:03;;;;;;;0.00;0.00;;;;;;;11.39;100.00;100048.75;5030199;28;20650;-88
2022/11/01 01:47:31;;;;;;;0.00;0.00;;;;;;;11.43;100.00;100040.69;5030098;28;20184;-86
2022/11/01 01:50:06;;;;;;;0.00;0.00;;;;;;;11.33;100.00;100037.19;5012505;28;20284;-86
2022/11/01 01:52:41;;;;;;;0.00;0.00;;;;;;;11.35;100.00;100025.13;5033296;28;20167;-87
2022/11/01 01:55:09;;;;;;;0.00;0.00;;;;;;;11.38;100.00;100021.72;5034144;28;20182;-87
2022/11/01 01:57:36;;;;;;;0.00;0.00;;;;;;;11.46;100.00;100013.50;5033906;28;20188;-85
2022/11/01 02:00:03;;;;;;;0.20;0.20;;;;;;;11.59;100.00;100017.16;5034164;28;20210;-84
2022/11/01 02:02:29;;;;;;;0.00;0.00;;;;;;;11.59;100.00;100008.94;5033935;28;20218;-86
2022/11/01 02:04:59;;;;;;;0.10;0.10;;;;;;;11.61;100.00;100004.75;5033814;28;20167;-86
2022/11/01 02:07:25;;;;;;;0.00;0.00;;;;;;;11.41;100.00;99994.50;5032538;28;20203;-88
2022/11/01 02:09:51;;;;;;;0.00;0.00;;;;;;;11.36;100.00;100002.91;5034021;28;20241;-86
2022/11/01 02:12:17;;;;;;;0.10;0.10;;;;;;;11.21;100.00;100004.25;5033950;28;20187;-87
2022/11/01 02:14:44;;;;;;;0.00;0.00;;;;;;;11.22;100.00;99999.59;5033764;28;20180;-89
2022/11/01 02:17:37;;;;;;;0.00;0.00;;;;;;;11.14;100.00;100000.41;5034149;28;20176;-88
2022/11/01 02:20:02;;;;;;;0.00;0.00;;;;;;;11.28;100.00;99985.41;5034026;28;20206;-86
2022/11/01 02:22:39;;;;;;;0.00;0.00;;;;;;;11.23;100.00;99982.84;5034376;28;20576;-87
2022/11/01 02:25:16;;;;;;;0.00;0.00;;;;;;;11.26;100.00;99993.13;5033959;28;20669;-86
2022/11/01 02:28:08;;;;;;;0.00;0.00;;;;;;;11.36;100.00;99986.50;5034312;28;20176;-83
2022/11/01 02:30:43;;;;;;;0.13;0.13;;;;;;;11.45;100.00;99983.75;5033894;28;20196;-87
2022/11/01 02:33:38;;;;;;;0.00;0.00;;;;;;;11.55;100.00;99984.16;5033812;28;20175;-87
2022/11/01 02:36:16;;;;;;;0.00;0.00;;;;;;;11.76;100.00;99976.03;5008947;28;20183;-86
2022/11/01 02:38:50;;;;;;;0.00;0.00;;;;;;;11.93;100.00;99971.59;5033800;28;20180;-88
2022/11/01 02:41:20;;;;;;;4.37;3.93;;;;;;;12.10;100.00;99976.97;5033768;28;20224;-87
2022/11/01 02:44:01;;;;;;;0.83;0.83;;;;;;;12.25;100.00;99984.56;5033495;28;20681;-86
2022/11/01 02:49:21;;;;;;;0.17;0.17;;;;;;;12.54;100.00;99985.63;5033550;28;20295;-86
2022/11/01 02:51:49;;;;;;;0.50;0.30;;;;;;;12.61;100.00;99994.94;5033482;28;20207;-86
2022/11/01 02:54:25;;;;;;;0.10;0.10;;;;;;;12.66;100.00;99991.97;5015535;28;20176;-88
2022/11/01 02:56:51;;;;;;;0.00;0.00;;;;;;;12.74;100.00;100006.75;5033486;28;20182;-84
2022/11/01 02:59:25;;;;;;;0.10;0.10;;;;;;;12.90;100.00;100018.69;5033574;28;20211;-86
2022/11/01 03:01:59;;;;;;;0.07;0.07;;;;;;;12.93;100.00;100006.25;5033293;28;20520;-83
2022/11/01 03:04:24;;;;;;;0.00;0.00;;;;;;;12.99;100.00;100004.88;5032314;28;20698;-87
2022/11/01 03:06:56;;;;;;;0.00;0.00;;;;;;;12.98;100.00;100022.47;5033359;28;20262;-88
2022/11/01 03:09:22;;;;;;;0.00;0.00;;;;;;;12.98;100.00;100011.50;5033655;28;20160;-89
2022/11/01 03:11:54;;;;;;;0.00;0.00;;;;;;;13.04;100.00;100010.19;5033050;28;20215;-88
2022/11/01 03:14:31;;;;;;;0.93;0.93;;;;;;;13.09;100.00;100013.50;5032853;28;20199;-85
2022/11/01 03:17:22;;;;;;;0.00;0.00;;;;;;;12.98;100.00;100008.78;5033182;28;20188;-86
2022/11/01 03:19:59;;;;;;;0.33;0.33;;;;;;;13.10;100.00;100014.28;5033669;28;20176;-88
2022/11/01 03:22:48;;;;;;;0.00;0.00;;;;;;;13.07;100.00;100009.50;5032952;28;20668;-86
2022/11/01 03:25:39;;;;;;;3.63;3.40;;;;;;;13.00;100.00;100011.97;5032694;28;20246;-88
2022/11/01 03:28:29;;;;;;;23.03;1.73;;;;;;;12.96;100.00;100019.28;5032904;28;20199;-88
2022/11/01 03:31:01;;;;;;;0.00;0.00;;;;;;;12.82;100.00;100005.88;5032677;28;20210;-87
2022/11/01 03:33:29;;;;;;;1.57;1.40;;;;;;;12.87;100.00;100013.06;5032693;28;20164;-88
2022/11/01 03:35:59;;;;;;;0.00;0.00;;;;;;;12.70;100.00;99998.38;5032796;28;20174;-84
2022/11/01 03:38:28;;;;;;;0.00;0.00;;;;;;;12.65;100.00;99997.81;5032766;28;20205;-87
2022/11/01 03:41:03;;;;;;;0.10;0.10;;;;;;;12.76;100.00;100001.75;5032456;28;20627;-86
2022/11/01 03:43:31;;;;;;;0.00;0.00;;;;;;;12.79;100.00;99999.13;5032487;28;20175;-86
2022/11/01 03:45:57;;;;;;;0.00;0.00;;;;;;;12.63;100.00;99989.91;5033425;28;20631;-85
2022/11/01 03:48:22;;;;;;;0.00;0.00;;;;;;;12.64;100.00;99979.75;5032474;28;20183;-87
2022/11/01 03:50:49;;;;;;;0.00;0.00;;;;;;;12.60;100.00;99973.34;5047672;28;20199;-88
2022/11/01 03:53:15;;;;;;;0.20;0.20;;;;;;;12.61;100.00;99958.50;5032347;28;20271;-86
2022/11/01 03:55:41;;;;;;;0.60;0.60;;;;;;;12.73;100.00;99964.00;5032528;28;20259;-87
2022/11/01 03:58:06;;;;;;;3.83;1.50;;;;;;;12.79;100.00;99965.41;5032305;28;20262;-87
2022/11/01 04:00:35;;;;;;;0.40;0.40;;;;;;;12.75;100.00;99959.81;5032249;28;20611;-87
2022/11/01 04:03:00;;;;;;;0.73;0.73;;;;;;;12.78;100.00;99964.63;5032323;28;20665;-86
2022/11/01 04:05:28;;;;;;;0.00;0.00;;;;;;;12.74;100.00;99951.94;5032247;28;20172;-86
2022/11/01 04:07:54;;;;;;;0.00;0.00;;;;;;;12.79;100.00;99959.94;5032152;28;20172;-89
2022/11/01 04:10:21;;;;;;;0.00;0.00;;;;;;;12.85;100.00;99957.78;5031903;28;20196;-87
2022/11/01 04:12:49;;;;;;;0.10;0.10;;;;;;;12.85;100.00;99953.09;5031756;28;20191;-86
2022/11/01 04:21:06;;;;;;;0.00;0.00;;;;;;;13.31;100.00;99937.47;5031973;28;20175;-87
2022/11/01 04:23:32;;;;;;;5.00;2.50;;;;;;;13.48;100.00;99956.44;5031747;28;20172;-89
2022/11/01 04:25:57;;;;;;;0.00;0.00;;;;;;;13.58;100.00;99950.47;5031916;28;20649;-88
2022/11/01 04:28:22;;;;;;;0.37;0.13;;;;;;;13.79;100.00;99969.59;5031782;28;20178;-86
2022/11/01 04:30:48;;;;;;;0.93;0.40;;;;;;;13.95;100.00;99988.91;5031837;28;20256;-86
2022/11/01 04:33:13;;;;;;;0.53;0.53;;;;;;;14.22;100.00;100007.41;5031568;28;20222;-88
2022/11/01 04:35:39;;;;;;;2.67;1.90;;;;;;;14.48;100.00;100004.28;5032025;28;20171;-87
2022/11/01 04:38:05;;;;;;;8.17;4.23;;;;;;;14.51;100.00;99991.78;5031653;28;20270;-84
2022/11/01 04:40:31;;;;;;;5.93;0.97;;;;;;;14.52;100.00;99996.94;5031886;28;20185;-87
2022/11/01 04:42:57;;;;;;;1.60;1.50;;;;;;;14.49;100.00;99994.09;5031418;28;20271;-86
2022/11/01 04:45:22;;;;;;;0.40;0.40;;;;;;;14.52;100.00;100005.19;5031490;28;20188;-88
2022/11/01 04:47:51;;;;;;;1.40;1.30;;;;;;;14.55;100.00;100009.19;5031785;28;20172;-75
2022/11/01 04:50:19;;;;;;;1.70;1.60;;;;;;;14.61;100.00;100015.22;5033390;28;20639;-77
2022/11/01 04:52:46;;;;;;;4.63;1.90;;;;;;;14.55;100.00;100014.69;5032254;28;20271;-76
2022/11/01 04:55:11;;;;;;;4.50;4.10;;;;;;;14.51;100.00;100011.03;5031419;28;20630;-78
2022/11/01 04:57:41;;;;;;;2.27;2.17;;;;;;;14.53;100.00;100009.53;5031141;28;20179;-75
2022/11/01 05:00:10;;;;;;;0.27;0.27;;;;;;;14.52;100.00;100007.94;5031334;28;20179;-77
2022/11/01 05:02:36;;;;;;;1.17;1.07;;;;;;;14.47;100.00;100013.69;5031586;28;20180;-79
2022/11/01 05:05:03;;;;;;;2.73;1.83;;;;;;;14.47;100.00;100004.66;5031268;28;20172;-75
2022/11/01 05:07:29;;;;;;;0.23;0.23;;;;;;;14.49;100.00;100013.34;5031033;28;20222;-76
2022/11/01 05:09:54;;;;;;;4.03;1.40;;;;;;;14.47;100.00;100010.16;5013336;28;20172;-81
2022/11/01 05:12:19;;;;;;;0.30;0.30;;;;;;;14.67;100.00;100009.16;5031167;28;20712;-79
2022/11/01 05:14:45;;;;;;;3.60;1.33;;;;;;;14.62;100.00;100006.66;5030680;28;20630;-79
2022/11/01 05:17:10;;;;;;;4.00;3.70;;;;;;;14.73;100.00;100023.44;5030908;28;20237;-78
2022/11/01 05:19:36;;;;;;;0.07;0.07;;;;;;;14.82;100.00;100019.41;5013317;28;20589;-80
2022/11/01 05:22:01;;;;;;;2.73;2.63;;;;;;;14.84;99.68;100019.84;5030933;28;20198;-84
2022/11/01 05:24:26;;;;;;;14.27;4.27;;;;;;;14.90;98.83;100020.41;5030882;28;20517;-78
2022/11/01 05:26:52;;;;;;;7.47;3.47;;;;;;;15.06;97.72;100031.44;5030353;28;20609;-81
2022/11/01 05:29:17;;;;;;;6.87;2.27;;;;;;;15.02;97.22;100028.59;5031233;28;20183;-80
2022/11/01 05:31:42;;;;;;;1.60;1.50;;;;;;;15.12;96.44;100024.53;5030898;28;20204;-76
2022/11/01 05:34:07;;;;;;;0.90;0.87;;;;;;;15.08;96.62;100029.94;5013055;28;20278;-76
2022/11/01 05:36:33;;;;;;;0.57;0.43;;;;;;;15.14;96.42;100028.53;5030772;28;20592;-81
2022/11/01 05:38:58;;;;;;;3.73;3.43;;;;;;;15.21;96.34;100032.63;5030810;28;20176;-85
2022/11/01 05:41:24;;;;;;;0.00;0.00;;;;;;;15.23;95.60;100036.63;5030810;28;20263;-77
2022/11/01 05:43:50;;;;;;;0.00;0.00;;;;;;;15.10;97.20;100038.66;5030543;28;20175;-86
2022/11/01 05:46:16;;;;;;;0.07;0.07;;;;;;;15.22;96.37;100045.25;5030652;28;20330;-86
2022/11/01 05:48:41;;;;;;;3.37;2.70;;;;;;;15.14;97.02;100055.25;5030681;28;20168;-87
2022/11/01 05:51:10;;;;;;;6.03;2.97;;;;;;;15.15;96.83;100043.09;5031214;28;20231;-87
2022/11/01 05:53:35;;;;;;;1.40;0.67;;;;;;;15.20;96.33;100036.53;5031288;28;20172;-90
2022/11/01 05:56:01;;;;;;;2.23;2.03;;;;;;;15.22;96.09;100046.03;5013457;28;20179;-88
2022/11/01 05:58:27;;;;;;;5.30;2.90;;;;;;;15.21;95.65;100055.44;5031125;28;20175;-84
2022/11/01 06:01:00;;;;;;;0.00;0.00;;;;;;;15.15;95.39;100045.84;5030624;28;20172;-82
2022/11/01 06:03:25;;;;;;;1.90;0.87;;;;;;;15.14;96.11;100061.56;5012256;28;20176;-82
2022/11/01 06:05:51;;;;;;;1.10;1.10;;;;;;;15.22;95.49;100057.06;5030336;28;20184;-82
2022/11/01 06:08:16;;;;;;;0.10;0.00;;;;;;;15.21;94.86;100063.72;5030137;28;20262;-81
2022/11/01 06:10:42;;;;;;;6.30;5.73;;;;;;;15.22;94.93;100048.00;5030113;28;20671;-81
2022/11/01 06:13:07;;;;;;;0.77;0.77;;;;;;;15.28;94.58;100044.63;5030098;28;20172;-81
2022/11/01 06:15:34;;;;;;;3.17;2.50;;;;;;;15.27;94.44;100045.78;5030119;28;20650;-81
2022/11/01 06:17:59;;;;;;;1.70;1.03;;;;;;;15.31;94.00;100049.41;5030085;28;20184;-78
2022/11/01 06:20:26;;;;;;;0.83;0.83;;;;;;;15.34;93.56;100047.94;5030251;28;20191;-80
2022/11/01 06:22:52;;;;;;;0.53;0.53;;;;;;;15.29;93.41;100048.16;5029975;28;20206;-80
2022/11/01 06:25:17;;;;;;;1.47;1.30;;;;;;;15.28;93.45;100052.06;5030312;28;20206;-81
2022/11/01 06:27:42;;;;;;;1.10;1.00;;;;;;;15.28;93.74;100057.59;5029952;28;20184;-80
2022/11/01 06:30:08;;;;;;;2.03;1.70;;;;;;;15.25;93.86;100056.34;5030057;28;20172;-80
2022/11/01 06:32:34;;;;;;;0.40;0.40;;;;;;;15.28;93.72;100066.63;5029864;28;20164;-79
2022/11/01 06:34:59;;;;;;;1.77;1.40;;;;;;;15.24;93.78;100057.50;5030561;28;20176;-80
2022/11/01 06:37:24;;;;;;;1.27;1.17;;;;;;;15.24;94.14;100070.47;5027861;28;20176;-81
2022/11/01 06:39:50;;;;;;;3.00;2.80;;;;;;;15.27;93.94;100078.00;5031249;28;20180;-80
2022/11/01 06:42:15;;;;;;;2.30;1.33;;;;;;;15.31;93.41;100070.63;5032114;28;20278;-80
2022/11/01 06:44:40;;;;;;;3.07;2.80;;;;;;;15.33;93.57;100082.88;5033109;28;20715;-80
2022/11/01 06:47:06;;;;;;;1.27;1.00;;;;;;;15.34;93.33;100081.75;5033286;28;20179;-80
2022/11/01 06:49:31;;;;;;;0.30;0.30;;;;;;;15.35;93.70;100088.88;5033501;28;20168;-80
2022/11/01 06:51:56;;;;;;;3.93;1.97;;;;;;;15.32;93.66;100099.75;5033682;28;20603;-80
2022/11/01 06:54:22;;;;;;;2.10;2.00;;;;;;;15.32;94.14;100100.56;5033218;28;20535;-81
2022/11/01 06:56:47;;;;;;;0.30;0.30;;;;;;;15.32;93.98;100110.78;5033425;28;20258;-83
2022/11/01 06:59:13;;;;;;;3.73;3.17;;;;;;;15.32;94.15;100103.31;5033500;28;20176;-89
2022/11/01 07:01:39;;;;;;;1.50;1.40;;;;;;;15.29;94.22;100109.53;5013492;28;20177;-81
2022/11/01 07:04:04;;;;;;;0.00;0.00;;;;;;;15.27;94.53;100114.59;5013157;28;20816;-81
2022/11/01 07:06:29;;;;;;;6.70;2.53;;;;;;;15.30;94.29;100122.13;5013426;28;20184;-80
2022/11/01 07:08:57;;;;;;;0.63;0.63;;;;;;;15.31;93.72;100114.69;5013260;28;20658;-80
2022/11/01 07:11:22;;;;;;;2.67;2.47;;;;;;;15.33;93.79;100129.69;5012971;28;20204;-81
2022/11/01 07:13:47;;;;;;;4.97;2.33;;;;;;;15.36;93.41;100129.00;5012838;28;20548;-81
2022/11/01 07:16:13;;;;;;;4.10;2.63;;;;;;;15.40;93.15;100134.59;5012939;28;20263;-81
2022/11/01 07:18:38;;;;;;;1.80;1.53;;;;;;;15.40;93.42;100135.41;5013108;28;20548;-80
2022/11/01 07:21:05;;;;;;;1.53;1.50;;;;;;;15.42;92.97;100141.34;5013311;28;20180;-81
2022/11/01 07:23:30;;;;;;;11.27;2.43;;;;;;;15.44;92.92;100141.81;5012614;28;20172;-81
2022/11/01 07:25:56;;;;;;;9.00;4.17;;;;;;;15.42;93.23;100141.34;5012838;28;20173;-82
2022/11/01 07:28:22;;;;;;;10.23;1.80;;;;;;;15.46;92.93;100141.44;5028715;28;20199;-81
2022/11/01 07:30:48;;;;;;;1.87;1.77;;;;;;;15.43;93.28;100147.66;5032453;28;20207;-80
2022/11/01 07:33:14;;;;;;;19.63;2.17;;;;;;;15.43;93.42;100148.47;5032230;28;20184;-80
2022/11/01 07:35:39;;;;;;;2.00;1.90;;;;;;;15.48;92.92;100144.69;5032512;28;20178;-82
2022/11/01 07:38:04;;;;;;;4.90;2.13;;;;;;;15.47;93.25;100149.34;5032387;28;20176;-81
2022/11/01 07:40:30;;;;;;;11.30;2.80;;;;;;;15.54;92.88;100153.47;5032450;28;20213;-82
2022/11/01 07:42:57;;;;;;;2.33;2.20;;;;;;;15.58;92.44;100146.09;5032045;28;20180;-81
2022/11/01 07:45:24;;;;;;;0.93;0.93;;;;;;;15.61;92.14;100154.47;5032181;28;20231;-78
2022/11/01 07:47:49;;;;;;;0.63;0.63;;;;;;;15.63;91.95;100145.91;5032417;28;20211;-80
2022/11/01 07:50:15;;;;;;;10.60;2.80;;;;;;;15.63;91.94;100143.13;5031645;28;20630;-81
2022/11/01 07:52:40;;;;;;;2.07;1.97;;;;;;;15.67;91.70;100155.03;5032011;28;20176;-81
2022/11/01 07:55:06;;;;;;;28.57;1.60;;;;;;;15.65;91.66;100149.09;5032185;28;20175;-80
2022/11/01 07:57:37;;;;;;;2.10;2.00;;;;;;;15.69;91.72;100156.28;5031971;28;20527;-82
2022/11/01 08:00:03;;;;;;;1.37;1.27;;;;;;;15.73;90.99;100153.63;5032315;28;20175;-84
2022/11/01 08:02:28;;;;;;;1.70;1.60;;;;;;;15.76;90.83;100180.44;5031810;28;20183;-84
2022/11/01 08:04:54;;;;;;;2.03;1.83;;;;;;;15.78;91.16;100169.91;5031823;28;20750;-85
2022/11/01 08:07:19;;;;;;;1.60;1.37;;;;;;;15.82;90.50;100167.25;5032468;28;20175;-84
2022/11/01 08:09:44;;;;;;;5.07;1.30;;;;;;;15.87;90.44;100178.78;5031801;28;20663;-85
2022/11/01 08:12:09;;;;;;;0.00;0.00;;;;;;;15.94;89.99;100175.44;5031564;28;20295;-85
2022/11/01 08:14:35;;;;;;;1.03;1.03;;;;;;;15.99;90.47;100186.19;5031386;28;20172;-84
2022/11/01 08:17:00;;;;;;;8.23;1.57;;;;;;;16.07;89.71;100176.97;5031686;28;20198;-85
2022/11/01 08:19:26;;;;;;;1.23;1.23;;;;;;;16.11;89.56;100175.09;5031574;28;20217;-82
2022/11/01 08:21:51;;;;;;;1.03;1.03;;;;;;;16.15;88.99;100177.94;5031769;28;20187;-84
2022/11/01 08:24:17;;;;;;;1.70;1.60;;;;;;;16.14;89.29;100168.06;5031314;28;20176;-84
2022/11/01 08:26:42;;;;;;;0.80;0.80;;;;;;;16.14;89.55;100177.13;5031439;28;20180;-85
2022/11/01 08:29:08;;;;;;;8.67;1.70;;;;;;;16.20;89.15;100166.63;5031657;28;20255;-83
2022/11/01 08:31:38;;;;;;;0.30;0.30;;;;;;;16.20;89.22;100167.44;5031379;28;20265;-81
2022/11/01 08:34:03;;;;;;;0.30;0.30;;;;;;;16.25;88.66;100169.13;5031343;28;20657;-83
2022/11/01 08:36:29;;;;;;;15.53;1.57;;;;;;;16.29;88.51;100183.78;5031682;28;20168;-88
2022/11/01 08:38:54;;;;;;;0.00;0.00;;;;;;;16.24;88.91;100178.56;5031278;28;20212;-86
2022/11/01 08:41:19;;;;;;;3.37;2.27;;;;;;;16.32;88.07;100188.59;5031221;28;20176;-82
2022/11/01 08:43:44;;;;;;;2.33;2.13;;;;;;;16.36;88.70;100192.25;5030999;28;20183;-80
2022/11/01 08:46:10;;;;;;;0.00;0.00;;;;;;;16.39;88.24;100202.56;5031634;28;20238;-83
2022/11/01 08:48:35;;;;;;;0.50;0.50;;;;;;;16.44;87.65;100209.75;5031519;28;20172;-82
2022/11/01 08:51:01;;;;;;;0.00;0.00;;;;;;;16.43;87.29;100217.25;5031009;28;20207;-82
2022/11/01 08:53:26;;;;;;;0.00;0.00;;;;;;;16.44;87.69;100218.03;5030732;28;20172;-82
2022/11/01 08:55:57;;;;;;;5.27;1.87;;;;;;;16.49;87.53;100217.75;5031191;28;20168;-88
2022/11/01 08:58:22;;;;;;;1.70;1.60;;;;;;;16.51;87.46;100226.50;5031568;28;20521;-86
2022/11/01 09:00:47;;;;;;;0.67;0.67;;;;;;;16.54;87.03;100221.06;5030549;28;20184;-87
2022/11/01 09:03:13;;;;;;;0.37;0.37;;;;;;;16.55;87.44;100216.34;5013525;28;20183;-89
2022/11/01 09:05:39;;;;;;;1.40;1.30;;;;;;;16.59;87.35;100222.75;5031142;28;20172;-88
2022/11/01 09:08:05;;;;;;;0.10;0.10;;;;;;;16.61;86.76;100214.91;5029257;28;20184;-88
2022/11/01 09:10:31;;;;;;;1.50;1.40;;;;;;;16.64;85.81;100223.28;5027214;28;20211;-87
2022/11/01 09:12:57;;;;;;;0.33;0.33;;;;;;;16.64;86.46;100226.06;5027050;28;20478;-87
2022/11/01 09:15:22;;;;;;;0.93;0.73;;;;;;;16.62;87.24;100227.53;5030276;28;20172;-86
2022/11/01 09:17:47;;;;;;;1.57;1.20;;;;;;;16.73;86.11;100227.84;5031096;28;20183;-88
2022/11/01 09:20:14;;;;;;;1.47;1.37;;;;;;;16.77;85.99;100229.50;5031150;28;20683;-88
2022/11/01 09:22:39;;;;;;;0.00;0.00;;;;;;;16.80;85.34;100225.25;5030441;28;20172;-88
2022/11/01 09:25:05;;;;;;;0.80;0.80;;;;;;;16.84;85.38;100240.72;5045771;28;20182;-85
2022/11/01 09:27:30;;;;;;;6.17;1.23;;;;;;;16.79;85.39;100242.97;5030638;28;20183;-88
2022/11/01 09:29:56;;;;;;;0.63;0.57;;;;;;;16.81;86.14;100248.94;5030547;28;20234;-87
2022/11/01 09:32:21;;;;;;;5.13;2.00;;;;;;;16.83;85.16;100257.66;5029598;28;20206;-87
2022/11/01 09:34:48;;;;;;;0.33;0.33;;;;;;;16.79;85.12;100259.53;5028819;28;20180;-87
2022/11/01 09:37:14;;;;;;;4.53;1.83;;;;;;;16.78;84.63;100255.97;5027809;28;20650;-86
2022/11/01 09:39:39;;;;;;;3.70;2.30;;;;;;;16.74;84.53;100268.84;5028589;28;20217;-85
2022/11/01 09:42:27;;;;;;;0.40;0.37;;;;;;;16.73;84.09;100267.25;5027246;28;20234;-87
2022/11/01 09:44:57;;;;;;;3.37;2.07;;;;;;;16.73;83.72;100255.44;5029862;28;20192;-88
2022/11/01 09:47:27;;;;;;;1.10;0.77;;;;;;;16.75;83.06;100253.91;5029807;28;20238;-89
2022/11/01 09:50:22;;;;;;;0.50;0.50;;;;;;;16.77;82.09;100267.34;5030401;28;20180;-87
2022/11/01 09:52:49;;;;;;;0.73;0.70;;;;;;;16.78;81.86;100269.75;5029243;28;20176;-88
2022/11/01 09:55:16;;;;;;;4.27;1.13;;;;;;;16.77;81.82;100270.09;5030164;28;20176;-89
2022/11/01 09:57:59;;;;;;;1.50;1.40;;;;;;;16.73;81.57;100277.50;5030193;28;20183;-85
2022/11/01 10:00:31;;;;;;;2.27;1.80;;;;;;;16.74;81.08;100276.34;5030289;28;20183;-87
2022/11/01 10:03:16;;;;;;;0.50;0.50;;;;;;;16.72;80.70;100282.22;5026412;28;20635;-88
2022/11/01 10:06:35;;;;;;;0.60;0.60;;;;;;;16.74;80.55;100282.66;5029855;28;20180;-85
2022/11/01 10:09:29;;;;;;;1.40;1.30;;;;;;;16.72;79.66;100282.22;5012177;28;20721;-86
2022/11/01 10:12:13;;;;;;;1.07;1.07;;;;;;;16.72;79.98;100287.72;5024435;28;20216;-86
2022/11/01 10:14:38;;;;;;;3.80;1.13;;;;;;;16.69;79.97;100299.50;5014996;28;20180;-87
2022/11/01 10:17:16;;;;;;;1.07;0.97;;;;;;;16.65;79.85;100296.63;5028724;28;20550;-86
2022/11/01 10:19:48;;;;;;;1.30;1.20;;;;;;;16.61;80.00;100300.41;5028368;28;20187;-86
2022/11/01 10:22:21;;;;;;;0.60;0.60;;;;;;;16.55;80.41;100304.59;5031572;28;20199;-82
2022/11/01 10:24:57;;;;;;;0.70;0.63;;;;;;;16.55;80.81;100301.84;5031895;28;20186;-86
2022/11/01 10:27:51;;;;;;;5.53;1.03;;;;;;;16.55;80.50;100305.41;5033116;28;20310;-86
2022/11/01 10:30:18;;;;;;;2.17;1.90;;;;;;;16.60;79.96;100296.84;5033256;28;20176;-85
2022/11/01 10:32:49;;;;;;;0.57;0.57;;;;;;;16.69;80.30;100307.75;5033141;28;20195;-88
2022/11/01 10:35:21;;;;;;;1.03;1.00;;;;;;;16.75;79.99;100313.81;5033358;28;20191;-85
2022/11/01 10:37:56;;;;;;;0.83;0.83;;;;;;;16.80;79.29;100316.31;5032284;28;20631;-83
2022/11/01 10:40:32;;;;;;;2.00;1.37;;;;;;;16.92;79.96;100314.25;5026145;28;20202;-84
2022/11/01 10:42:58;;;;;;;6.27;2.80;;;;;;;17.01;79.21;100316.81;5027835;28;20184;-85
2022/11/01 10:45:23;;;;;;;3.73;2.30;;;;;;;17.16;79.36;100313.25;5032873;28;20554;-85
2022/11/01 10:47:56;;;;;;;2.10;1.53;;;;;;;17.06;78.21;100302.75;5032500;28;20175;-85
2022/11/01 10:50:26;;;;;;;3.07;2.10;;;;;;;17.04;79.12;100312.53;5033148;28;20183;-86
2022/11/01 10:53:21;;;;;;;3.20;1.87;;;;;;;17.06;78.60;100315.75;5032759;28;20203;-82
2022/11/01 10:55:56;;;;;;;0.50;0.50;;;;;;;16.99;77.74;100315.59;5016292;28;20677;-87
2022/11/01 10:58:25;;;;;;;10.47;2.07;;;;;;;16.90;77.88;100324.84;5031716;28;20183;-85
2022/11/01 11:00:51;;;;;;;1.50;1.33;;;;;;;16.81;77.17;100331.72;5033036;28;20210;-87
2022/11/01 11:03:27;;;;;;;0.83;0.83;;;;;;;16.68;76.11;100336.50;5032630;28;20180;-82
2022/11/01 11:05:54;;;;;;;2.23;1.40;;;;;;;16.65;75.09;100342.72;5033198;28;20226;-86
2022/11/01 11:08:22;;;;;;;5.03;2.80;;;;;;;16.54;73.20;100334.16;5032734;28;20175;-86
2022/11/01 11:10:48;;;;;;;3.20;2.07;;;;;;;16.41;72.47;100348.38;5032578;28;20663;-85
2022/11/01 11:13:19;;;;;;;1.33;1.23;;;;;;;16.51;72.29;100354.16;5032361;28;20190;-84
2022/11/01 11:15:52;;;;;;;2.33;1.43;;;;;;;16.72;71.44;100345.66;5032938;28;20183;-86
2022/11/01 11:18:34;;;;;;;2.30;1.37;;;;;;;16.84;70.06;100353.88;5032903;28;20180;-86
2022/11/01 11:21:03;;;;;;;1.10;1.00;;;;;;;16.96;70.39;100347.47;5032935;28;20174;-85
2022/11/01 11:23:32;;;;;;;1.43;1.33;;;;;;;16.86;68.70;100345.22;5031424;28;20604;-83
2022/11/01 11:26:12;;;;;;;1.27;1.17;;;;;;;16.89;69.38;100348.06;5032402;28;20172;-86
2022/11/01 11:28:43;;;;;;;3.17;0.97;;;;;;;16.88;68.66;100352.00;5032410;28;20528;-85
2022/11/01 11:31:21;;;;;;;3.00;1.00;;;;;;;16.86;68.40;100361.78;5032239;28;20203;-87
2022/11/01 11:34:02;;;;;;;1.37;0.90;;;;;;;16.90;68.54;100363.47;5032017;28;20176;-85
2022/11/01 11:36:34;;;;;;;0.80;0.80;;;;;;;16.99;68.59;100356.97;5032246;28;20184;-84
2022/11/01 11:39:00;;;;;;;0.93;0.93;;;;;;;17.07;68.38;100356.81;5032217;28;20199;-85
2022/11/01 11:41:32;;;;;;;1.30;1.20;;;;;;;17.11;67.77;100357.69;5032086;28;20199;-86